createdAt,value
2023-05-02T00:01:07.088Z,0.0000
2023-05-02T00:02:07.750Z,0.0000
2023-05-02T00:03:07.878Z,0.0000
2023-05-02T00:04:08.244Z,0.0000
2023-05-02T00:06:08.786Z,0.0000
2023-05-02T00:10:11.966Z,0.0000
2023-05-02T00:11:12.571Z,0.0000
2023-05-02T00:12:13.206Z,0.0000
2023-05-02T00:14:13.001Z,0.0000
2023-05-02T00:15:14.543Z,0.0000
2023-05-02T00:18:16.146Z,0.0000
2023-05-02T00:19:17.969Z,0.0000
2023-05-02T00:20:18.667Z,0.0000
2023-05-02T00:23:20.368Z,0.0000
2023-05-02T00:24:21.569Z,0.0000
2023-05-02T00:26:22.552Z,0.0000
2023-05-02T00:27:23.255Z,0.0000
2023-05-02T00:28:24.052Z,0.0000
2023-05-02T00:29:24.820Z,0.0000
2023-05-02T00:30:25.774Z,0.0000
2023-05-02T00:31:26.239Z,0.0000
2023-05-02T00:32:26.357Z,0.0000
2023-05-02T00:33:28.176Z,0.0000
2023-05-02T00:34:28.697Z,0.0000
2023-05-02T00:35:29.015Z,0.0000
2023-05-02T00:36:29.556Z,0.0000
2023-05-02T00:37:30.268Z,0.0000
2023-05-02T00:38:30.582Z,0.0000
2023-05-02T00:39:30.651Z,0.0000
2023-05-02T00:40:31.065Z,0.0000
2023-05-02T00:41:33.393Z,0.0000
2023-05-02T00:48:39.331Z,0.0000
2023-05-02T00:49:40.293Z,0.0000
2023-05-02T00:50:41.221Z,0.0000
2023-05-02T00:51:41.487Z,0.0000
2023-05-02T00:52:41.719Z,0.0000
2023-05-02T00:53:43.333Z,0.0000
2023-05-02T00:54:44.444Z,0.0000
2023-05-02T00:55:45.986Z,0.0000
2023-05-02T00:56:46.413Z,0.0000
2023-05-02T00:59:48.502Z,0.0000
2023-05-02T01:00:49.697Z,0.0000
2023-05-02T01:01:50.073Z,0.0000
2023-05-02T01:04:53.426Z,0.0000
2023-05-02T01:05:54.696Z,0.0000
2023-05-02T01:06:55.242Z,0.0000
2023-05-02T01:07:55.453Z,0.0000
2023-05-02T01:08:55.953Z,0.0000
2023-05-02T01:09:57.382Z,0.0000
2023-05-02T01:10:58.428Z,0.0000
2023-05-02T01:11:58.872Z,0.0000
2023-05-02T01:12:58.930Z,0.0000
2023-05-02T01:14:00.051Z,0.0000
2023-05-02T01:15:00.100Z,0.0000
2023-05-02T01:16:00.999Z,0.0000
2023-05-02T01:17:03.263Z,0.0000
2023-05-02T01:18:04.347Z,0.0000
2023-05-02T01:19:04.767Z,0.0000
2023-05-02T01:20:06.136Z,0.0000
2023-05-02T01:23:08.882Z,0.0000
2023-05-02T01:28:10.662Z,0.0000
2023-05-02T01:29:11.026Z,0.0000
2023-05-02T01:30:12.871Z,0.0000
2023-05-02T01:32:12.885Z,0.0000
2023-05-02T01:33:14.594Z,0.0000
2023-05-02T01:34:15.209Z,0.0000
2023-05-02T01:35:15.437Z,0.0000
2023-05-02T01:36:16.771Z,0.0000
2023-05-02T01:37:17.601Z,0.0000
2023-05-02T01:38:18.600Z,0.0000
2023-05-02T01:39:19.665Z,0.0000
2023-05-02T01:40:20.752Z,0.0000
2023-05-02T01:41:21.058Z,0.0000
2023-05-02T01:42:23.054Z,0.0000
2023-05-02T01:43:24.116Z,0.0000
2023-05-02T01:44:25.458Z,0.0000
2023-05-02T01:53:40.722Z,0.0000
2023-05-02T01:54:40.725Z,0.0000
2023-05-02T01:55:42.320Z,0.0000
2023-05-02T01:56:43.009Z,0.0000
2023-05-02T01:57:43.003Z,0.0000
2023-05-02T01:58:43.858Z,0.0000
2023-05-02T01:59:45.305Z,0.0000
2023-05-02T02:00:46.724Z,0.0000
2023-05-02T02:01:47.097Z,0.0000
2023-05-02T02:09:58.669Z,0.0000
2023-05-02T02:10:59.668Z,0.0000
2023-05-02T02:12:01.098Z,0.0000
2023-05-02T02:13:02.648Z,0.0000
2023-05-02T02:16:05.020Z,0.0000
2023-05-02T02:17:05.446Z,0.0000
2023-05-02T02:18:05.500Z,0.0000
2023-05-02T02:19:06.204Z,0.0000
2023-05-02T02:20:06.965Z,0.0000
2023-05-02T02:21:07.532Z,0.0000
2023-05-02T02:22:08.128Z,0.0000
2023-05-02T02:23:08.715Z,0.0000
2023-05-02T02:24:09.335Z,0.0000
2023-05-02T02:25:09.831Z,0.0000
2023-05-02T02:26:10.436Z,0.0000
2023-05-02T02:27:10.981Z,0.0000
2023-05-02T02:28:11.444Z,0.0000
2023-05-02T02:29:11.952Z,0.0000
2023-05-02T02:30:12.457Z,0.0000
2023-05-02T02:31:13.349Z,0.0000
2023-05-02T02:32:14.153Z,0.0000
2023-05-02T02:33:14.903Z,0.0000
2023-05-02T02:34:15.631Z,0.0000
2023-05-02T02:35:16.209Z,0.0000
2023-05-02T02:36:16.631Z,0.0000
2023-05-02T02:37:17.357Z,0.0000
2023-05-02T02:38:17.980Z,0.0000
2023-05-02T02:39:18.464Z,0.0000
2023-05-02T02:40:19.156Z,0.0000
2023-05-02T02:41:19.584Z,0.0000
2023-05-02T02:42:20.172Z,0.0000
2023-05-02T02:43:20.780Z,0.0000
2023-05-02T02:44:20.845Z,0.0000
2023-05-02T02:45:22.391Z,0.0000
2023-05-02T02:47:23.304Z,0.0000
2023-05-02T02:48:23.652Z,0.0000
2023-05-02T02:49:24.200Z,0.0000
2023-05-02T02:50:24.518Z,0.0000
2023-05-02T02:51:25.107Z,0.0000
2023-05-02T02:52:25.443Z,0.0000
2023-05-02T02:53:25.558Z,0.0000
2023-05-02T02:54:30.136Z,0.0000
2023-05-02T02:55:30.545Z,0.0000
2023-05-02T02:56:30.925Z,0.0000
2023-05-02T02:57:31.417Z,0.0000
2023-05-02T02:58:31.922Z,0.0000
2023-05-02T02:59:32.215Z,0.0000
2023-05-02T03:00:32.633Z,0.0000
2023-05-02T03:01:33.231Z,0.0000
2023-05-02T03:02:33.768Z,0.0000
2023-05-02T03:03:35.018Z,0.0000
2023-05-02T03:04:35.653Z,0.0000
2023-05-02T03:05:36.197Z,0.0000
2023-05-02T03:06:37.030Z,0.0000
2023-05-02T03:07:37.739Z,0.0000
2023-05-02T03:08:38.277Z,0.0000
2023-05-02T03:09:38.801Z,0.0000
2023-05-02T03:10:39.112Z,0.0000
2023-05-02T03:11:39.611Z,0.0000
2023-05-02T03:12:40.448Z,0.0000
2023-05-02T03:13:41.335Z,0.0000
2023-05-02T03:14:42.106Z,0.0000
2023-05-02T03:15:42.537Z,0.0000
2023-05-02T03:16:43.512Z,0.0000
2023-05-02T03:17:44.331Z,0.0000
2023-05-02T03:18:45.964Z,0.0000
2023-05-02T03:19:46.263Z,0.0000
2023-05-02T03:20:46.850Z,0.0000
2023-05-02T03:21:47.592Z,0.0000
2023-05-02T03:22:48.559Z,0.0000
2023-05-02T03:23:49.089Z,0.0000
2023-05-02T03:24:49.609Z,0.0000
2023-05-02T03:25:51.466Z,0.0000
2023-05-02T03:27:51.123Z,0.0000
2023-05-02T03:28:51.695Z,0.0000
2023-05-02T03:29:52.194Z,0.0000
2023-05-02T03:30:52.463Z,0.0000
2023-05-02T03:31:53.252Z,0.0000
2023-05-02T03:32:54.439Z,0.0000
2023-05-02T03:33:55.195Z,0.0000
2023-05-02T03:34:55.690Z,0.0000
2023-05-02T03:35:56.140Z,0.0000
2023-05-02T03:36:56.640Z,0.0000
2023-05-02T03:37:57.158Z,0.0000
2023-05-02T03:38:57.523Z,0.0000
2023-05-02T03:39:58.216Z,0.0000
2023-05-02T03:40:58.253Z,0.0000
2023-05-02T03:41:58.707Z,0.0000
2023-05-02T03:42:59.150Z,0.0000
2023-05-02T03:43:59.566Z,0.0000
2023-05-02T03:45:00.210Z,0.0000
2023-05-02T03:46:01.380Z,0.0000
2023-05-02T03:47:02.243Z,0.0000
2023-05-02T03:48:03.352Z,0.0000
2023-05-02T03:49:04.032Z,0.0000
2023-05-02T03:50:04.377Z,1.8667
2023-05-02T03:51:04.930Z,0.3778
2023-05-02T03:52:05.598Z,0.0000
2023-05-02T03:53:06.814Z,1.6000
2023-05-02T03:54:07.365Z,4.0000
2023-05-02T03:55:08.033Z,3.1111
2023-05-02T03:56:08.390Z,1.0000
2023-05-02T03:57:09.167Z,1.0000
2023-05-02T03:58:09.568Z,1.0000
2023-05-02T03:59:10.396Z,8.6444
2023-05-02T04:00:11.302Z,4.3778
2023-05-02T04:01:11.843Z,5.3556
2023-05-02T04:02:12.370Z,13.0000
2023-05-02T04:03:12.573Z,7.5227
2023-05-02T04:04:13.349Z,12.7778
2023-05-02T04:05:13.825Z,27.0682
2023-05-02T04:06:14.955Z,37.4444
2023-05-02T04:07:15.484Z,42.4889
2023-05-02T04:08:16.014Z,48.2000
2023-05-02T04:09:16.684Z,55.0667
2023-05-02T04:10:17.772Z,38.8222
2023-05-02T04:11:18.410Z,53.7778
2023-05-02T04:12:18.945Z,63.9111
2023-05-02T04:13:19.293Z,71.0667
2023-05-02T04:14:20.025Z,78.9556
2023-05-02T04:15:20.440Z,91.4222
2023-05-02T04:16:21.228Z,95.9111
2023-05-02T04:17:21.301Z,98.2955
2023-05-02T04:18:22.139Z,116.5556
2023-05-02T04:19:22.699Z,117.6667
2023-05-02T04:20:23.225Z,126.4762
2023-05-02T04:21:23.785Z,133.9333
2023-05-02T04:22:24.430Z,136.6667
2023-05-02T04:23:24.690Z,145.3556
2023-05-02T04:24:25.289Z,157.0889
2023-05-02T04:25:25.726Z,167.6000
2023-05-02T04:26:26.216Z,168.7778
2023-05-02T04:27:26.367Z,173.4048
2023-05-02T04:28:26.884Z,188.7111
2023-05-02T04:29:27.525Z,212.2889
2023-05-02T04:30:28.464Z,224.4222
2023-05-02T04:31:29.119Z,235.7778
2023-05-02T04:32:29.922Z,251.2667
2023-05-02T04:33:30.813Z,263.7778
2023-05-02T04:34:31.210Z,266.2222
2023-05-02T04:35:31.888Z,275.5555
2023-05-02T04:36:32.391Z,280.3333
2023-05-02T04:37:32.600Z,300.4773
2023-05-02T04:38:33.145Z,322.4667
2023-05-02T04:39:33.626Z,342.4889
2023-05-02T04:40:34.134Z,375.9333
2023-05-02T04:41:34.844Z,388.8000
2023-05-02T04:42:35.237Z,400.7778
2023-05-02T04:43:35.671Z,420.0476
2023-05-02T04:44:36.511Z,443.8000
2023-05-02T04:45:37.186Z,470.2444
2023-05-02T04:46:38.313Z,493.5111
2023-05-02T04:47:38.949Z,532.4889
2023-05-02T04:48:39.908Z,570.1778
2023-05-02T04:49:40.877Z,602.6667
2023-05-02T04:50:42.156Z,633.0000
2023-05-02T04:51:42.968Z,667.1364
2023-05-02T04:52:43.576Z,698.8889
2023-05-02T04:53:43.920Z,731.4222
2023-05-02T04:54:44.591Z,753.5778
2023-05-02T04:55:44.948Z,784.5555
2023-05-02T04:56:45.565Z,819.5111
2023-05-02T04:57:46.820Z,850.2500
2023-05-02T04:58:47.317Z,890.6889
2023-05-02T04:59:47.971Z,930.8000
2023-05-02T05:00:48.571Z,962.8666
2023-05-02T05:01:49.336Z,966.4222
2023-05-02T05:02:50.978Z,1005.1111
2023-05-02T05:03:51.075Z,1021.6667
2023-05-02T05:04:51.679Z,1044.3409
2023-05-02T05:05:51.952Z,1075.5581
2023-05-02T05:06:53.125Z,1100.7111
2023-05-02T05:07:53.816Z,1128.5778
2023-05-02T05:08:54.482Z,1155.3112
2023-05-02T05:09:55.980Z,1167.4667
2023-05-02T05:10:57.005Z,1155.8636
2023-05-02T05:11:57.691Z,1152.8445
2023-05-02T05:12:58.149Z,1162.2000
2023-05-02T05:13:58.874Z,1160.8223
2023-05-02T05:14:59.354Z,1158.8223
2023-05-02T05:16:00.255Z,1177.4222
2023-05-02T05:17:00.423Z,1216.5682
2023-05-02T05:18:01.003Z,1282.8667
2023-05-02T05:19:01.340Z,1325.8636
2023-05-02T05:20:02.276Z,1354.9778
2023-05-02T05:21:02.857Z,1358.2500
2023-05-02T05:23:04.324Z,1407.2000
2023-05-02T05:24:04.822Z,1450.5682
2023-05-02T05:25:05.699Z,1472.3778
2023-05-02T05:26:06.544Z,1491.1111
2023-05-02T05:27:07.396Z,1476.4091
2023-05-02T05:28:08.083Z,1430.3334
2023-05-02T05:29:08.776Z,1378.5333
2023-05-02T05:30:09.729Z,1326.7556
2023-05-02T05:31:10.599Z,1312.4000
2023-05-02T05:32:11.668Z,1379.1777
2023-05-02T05:33:12.393Z,1456.0227
2023-05-02T05:34:12.814Z,1392.0682
2023-05-02T05:35:13.551Z,1375.4222
2023-05-02T05:36:14.774Z,1335.4667
2023-05-02T05:37:15.363Z,1259.1364
2023-05-02T05:38:15.907Z,1221.1111
2023-05-02T05:39:16.665Z,1188.1777
2023-05-02T05:40:17.581Z,1085.4222
2023-05-02T05:41:18.292Z,1083.1111
2023-05-02T05:42:19.053Z,1038.6222
2023-05-02T05:43:20.089Z,1011.7778
2023-05-02T05:44:20.576Z,1008.8666
2023-05-02T05:45:21.507Z,1019.1334
2023-05-02T05:46:23.146Z,1049.6000
2023-05-02T05:47:24.179Z,1034.9556
2023-05-02T05:48:25.318Z,1083.0000
2023-05-02T05:49:26.124Z,1083.1555
2023-05-02T05:50:26.754Z,1047.0930
2023-05-02T05:51:27.699Z,1016.4445
2023-05-02T05:52:28.406Z,954.3778
2023-05-02T05:53:29.437Z,837.4889
2023-05-02T05:54:30.369Z,799.9556
2023-05-02T05:55:31.087Z,772.3111
2023-05-02T05:56:31.939Z,780.0889
2023-05-02T05:57:32.654Z,801.2667
2023-05-02T05:58:33.381Z,802.8222
2023-05-02T05:59:34.355Z,856.6667
2023-05-02T06:00:35.794Z,951.2444
2023-05-02T06:01:36.605Z,1054.2444
2023-05-02T06:02:36.757Z,1254.8409
2023-05-02T06:03:37.296Z,1371.2683
2023-05-02T06:04:37.576Z,1437.2046
2023-05-02T06:05:38.139Z,1624.3112
2023-05-02T06:06:39.065Z,1777.4222
2023-05-02T06:07:39.947Z,1774.8445
2023-05-02T06:08:40.459Z,1693.9556
2023-05-02T06:09:41.297Z,1615.3334
2023-05-02T06:10:42.549Z,1602.5333
2023-05-02T06:11:43.163Z,1687.0444
2023-05-02T06:12:45.209Z,1806.9333
2023-05-02T06:13:45.256Z,1886.7727
2023-05-02T06:14:45.698Z,1986.1555
2023-05-02T06:15:46.295Z,2111.9778
2023-05-02T06:16:47.197Z,2200.6667
2023-05-02T06:17:48.071Z,2181.1555
2023-05-02T06:18:48.926Z,2134.2888
2023-05-02T06:19:49.497Z,2135.3555
2023-05-02T06:20:49.867Z,2122.0908
2023-05-02T06:21:50.683Z,2106.5779
2023-05-02T06:22:51.127Z,2054.8667
2023-05-02T06:23:51.946Z,1997.2000
2023-05-02T06:24:52.526Z,2080.0667
2023-05-02T06:25:53.033Z,2253.5557
2023-05-02T06:26:53.743Z,2229.3555
2023-05-02T06:27:54.297Z,2049.2888
2023-05-02T06:28:54.896Z,2071.0667
2023-05-02T06:29:55.670Z,2253.5779
2023-05-02T06:30:56.111Z,2420.2000
2023-05-02T06:31:57.171Z,2440.8889
2023-05-02T06:32:57.998Z,2343.7556
2023-05-02T06:33:58.762Z,2223.3777
2023-05-02T06:34:59.503Z,2097.3555
2023-05-02T06:36:01.834Z,2097.2666
2023-05-02T06:37:00.392Z,2058.6511
2023-05-02T06:38:01.067Z,1848.6222
2023-05-02T06:39:01.676Z,1575.3778
2023-05-02T06:40:03.288Z,1489.2667
2023-05-02T06:41:04.238Z,1709.7556
2023-05-02T06:42:04.521Z,2130.2856
2023-05-02T06:43:05.403Z,2454.3333
2023-05-02T06:44:06.067Z,2709.5557
2023-05-02T06:45:06.750Z,2935.1555
2023-05-02T06:46:07.472Z,3211.3110
2023-05-02T06:47:08.174Z,3484.0444
2023-05-02T06:48:08.476Z,3599.8181
2023-05-02T06:49:09.323Z,3694.3110
2023-05-02T06:50:10.527Z,3790.6890
2023-05-02T06:51:11.270Z,3719.9333
2023-05-02T06:52:12.053Z,3708.9111
2023-05-02T06:53:12.657Z,3704.6890
2023-05-02T06:54:13.645Z,3723.3555
2023-05-02T06:55:14.383Z,3876.4773
2023-05-02T06:56:15.016Z,3991.0889
2023-05-02T06:57:15.782Z,4010.2222
2023-05-02T06:58:16.264Z,3992.1333
2023-05-02T06:59:16.965Z,4007.5112
2023-05-02T07:00:17.871Z,4085.3333
2023-05-02T07:01:18.953Z,4206.5557
2023-05-02T07:02:19.571Z,4344.2793
2023-05-02T07:03:20.679Z,4325.7998
2023-05-02T07:04:21.361Z,4169.3555
2023-05-02T07:05:22.068Z,4060.8223
2023-05-02T07:06:22.698Z,4094.5557
2023-05-02T07:07:23.315Z,4264.7954
2023-05-02T07:08:23.891Z,4468.8223
2023-05-02T07:09:24.390Z,4640.7109
2023-05-02T07:10:25.710Z,4791.8667
2023-05-02T07:11:26.374Z,4854.0225
2023-05-02T07:12:27.556Z,4855.2222
2023-05-02T07:13:28.502Z,4841.1558
2023-05-02T07:14:29.056Z,4829.5776
2023-05-02T07:15:29.466Z,4860.3999
2023-05-02T07:16:30.428Z,4829.9775
2023-05-02T07:17:31.278Z,4749.8887
2023-05-02T07:18:32.279Z,4646.1113
2023-05-02T07:19:32.899Z,4591.7109
2023-05-02T07:20:33.948Z,4612.5332
2023-05-02T07:21:34.629Z,4704.9556
2023-05-02T07:22:35.273Z,4855.8442
2023-05-02T07:23:35.706Z,5001.7334
2023-05-02T07:24:36.393Z,4925.1777
2023-05-02T07:25:37.238Z,4860.1333
2023-05-02T07:26:37.998Z,4852.1113
2023-05-02T07:27:38.576Z,4915.2002
2023-05-02T07:28:39.195Z,4961.6890
2023-05-02T07:29:39.896Z,5105.1333
2023-05-02T07:30:40.543Z,5230.4443
2023-05-02T07:31:41.119Z,5308.1113
2023-05-02T07:32:42.016Z,5388.3555
2023-05-02T07:33:42.967Z,5614.8223
2023-05-02T07:34:43.610Z,5888.7109
2023-05-02T07:35:44.261Z,5874.2446
2023-05-02T07:36:44.616Z,5464.4224
2023-05-02T07:37:45.219Z,5368.9111
2023-05-02T07:38:45.806Z,5493.9775
2023-05-02T07:39:46.246Z,5562.8887
2023-05-02T07:40:46.890Z,5889.3999
2023-05-02T07:41:47.482Z,5970.7554
2023-05-02T07:42:47.985Z,6301.9556
2023-05-02T07:43:48.710Z,6320.5332
2023-05-02T07:44:49.178Z,5693.6665
2023-05-02T07:45:50.150Z,5112.5332
2023-05-02T07:46:50.276Z,5168.1362
2023-05-02T07:47:50.659Z,4921.1777
2023-05-02T07:48:51.588Z,4239.6431
2023-05-02T07:49:52.330Z,3698.5334
2023-05-02T07:50:52.535Z,3301.2727
2023-05-02T07:51:53.265Z,2861.4888
2023-05-02T07:52:53.812Z,2376.1333
2023-05-02T07:53:54.225Z,2149.0889
2023-05-02T07:54:54.900Z,2014.3334
2023-05-02T07:55:55.296Z,1927.4222
2023-05-02T07:56:55.821Z,1911.3334
2023-05-02T07:57:56.472Z,1962.2889
2023-05-02T07:58:56.895Z,2172.9556
2023-05-02T07:59:57.693Z,2227.8667
2023-05-02T08:00:58.092Z,2188.3635
2023-05-02T08:01:58.684Z,2397.0444
2023-05-02T08:02:59.985Z,2729.8223
2023-05-02T08:04:00.656Z,3283.0681
2023-05-02T08:05:01.479Z,3813.0681
2023-05-02T08:06:01.616Z,4113.6138
2023-05-02T08:07:02.450Z,4492.8887
2023-05-02T08:08:03.256Z,4823.4668
2023-05-02T08:09:03.702Z,4649.0889
2023-05-02T08:10:04.557Z,4527.1333
2023-05-02T08:11:04.433Z,4329.4771
2023-05-02T08:12:05.369Z,4038.6978
2023-05-02T08:13:06.111Z,3774.8445
2023-05-02T08:14:06.858Z,3787.4888
2023-05-02T08:15:07.342Z,3932.7112
2023-05-02T08:16:08.426Z,4180.7998
2023-05-02T08:17:08.751Z,4524.7441
2023-05-02T08:18:09.497Z,4782.7554
2023-05-02T08:19:10.342Z,4993.4224
2023-05-02T08:20:10.403Z,5133.8184
2023-05-02T08:21:11.092Z,5146.0444
2023-05-02T08:22:12.040Z,5164.4668
2023-05-02T08:23:12.642Z,5241.0225
2023-05-02T08:24:14.329Z,5412.5557
2023-05-02T08:25:15.072Z,5560.3110
2023-05-02T08:26:15.731Z,5732.5776
2023-05-02T08:27:16.498Z,5625.8223
2023-05-02T08:28:17.299Z,5417.1113
2023-05-02T08:29:17.870Z,5196.7998
2023-05-02T08:30:18.828Z,4994.2002
2023-05-02T08:31:19.667Z,4754.4668
2023-05-02T08:32:20.872Z,4449.1333
2023-05-02T08:33:21.947Z,4460.3779
2023-05-02T08:34:22.707Z,4705.2891
2023-05-02T08:35:23.324Z,5038.7554
2023-05-02T08:36:24.253Z,5515.1113
2023-05-02T08:37:24.656Z,5760.7334
2023-05-02T08:38:25.266Z,5728.1113
2023-05-02T08:39:26.007Z,5477.2222
2023-05-02T08:40:38.199Z,5064.9775
2023-05-02T08:41:27.210Z,4625.8887
2023-05-02T08:42:27.618Z,4607.5684
2023-05-02T08:43:28.279Z,4807.4888
2023-05-02T08:44:29.000Z,5265.4224
2023-05-02T08:45:30.035Z,5818.0234
2023-05-02T08:46:31.133Z,6337.9111
2023-05-02T08:47:32.110Z,6648.3335
2023-05-02T08:48:32.182Z,6824.3638
2023-05-02T08:49:32.692Z,6721.0000
2023-05-02T08:50:33.390Z,6705.8442
2023-05-02T08:51:33.481Z,6913.5684
2023-05-02T08:52:34.016Z,6643.2666
2023-05-02T08:53:34.749Z,6089.7109
2023-05-02T08:54:35.250Z,5579.3335
2023-05-02T08:55:35.915Z,4937.3335
2023-05-02T08:56:36.837Z,4636.9775
2023-05-02T08:57:37.366Z,4864.8887
2023-05-02T08:58:38.020Z,5477.9775
2023-05-02T08:59:39.189Z,6350.7334
2023-05-02T09:00:39.736Z,6997.1113
2023-05-02T09:01:40.886Z,7269.5112
2023-05-02T09:02:41.629Z,7550.2446
2023-05-02T09:03:42.385Z,7900.8667
2023-05-02T09:04:43.418Z,8235.3555
2023-05-02T09:05:43.375Z,8335.7275
2023-05-02T09:06:44.172Z,8089.5112
2023-05-02T09:07:44.817Z,7903.7729
2023-05-02T09:08:45.266Z,7748.6001
2023-05-02T09:09:45.840Z,7622.4316
2023-05-02T09:10:46.480Z,7546.3779
2023-05-02T09:11:46.979Z,7280.1777
2023-05-02T09:12:47.826Z,6767.1113
2023-05-02T09:13:48.353Z,6437.0889
2023-05-02T09:14:49.065Z,6012.0000
2023-05-02T09:15:49.843Z,5302.4888
2023-05-02T09:16:50.631Z,5135.3110
2023-05-02T09:17:51.684Z,5733.8667
2023-05-02T09:18:52.381Z,6476.9331
2023-05-02T09:19:52.977Z,7123.6445
2023-05-02T09:20:53.634Z,7590.2446
2023-05-02T09:21:54.588Z,7986.1816
2023-05-02T09:22:55.200Z,8181.0225
2023-05-02T09:23:55.750Z,8257.8662
2023-05-02T09:24:56.271Z,8564.6221
2023-05-02T09:25:57.628Z,8829.4893
2023-05-02T09:26:58.941Z,8945.3555
2023-05-02T09:27:59.714Z,9166.1113
2023-05-02T09:29:00.481Z,9295.4893
2023-05-02T09:30:01.391Z,9330.5996
2023-05-02T09:31:02.439Z,9347.7998
2023-05-02T09:32:03.750Z,9359.2422
2023-05-02T09:33:04.867Z,9306.7998
2023-05-02T09:34:05.309Z,9446.6885
2023-05-02T09:35:06.225Z,9696.2725
2023-05-02T09:36:06.741Z,9783.4443
2023-05-02T09:37:07.391Z,10038.9111
2023-05-02T09:38:08.093Z,10152.9111
2023-05-02T09:39:09.015Z,10083.6221
2023-05-02T09:40:09.610Z,9442.1113
2023-05-02T09:41:10.418Z,8311.3330
2023-05-02T09:42:10.995Z,7159.9775
2023-05-02T09:43:11.687Z,6572.9331
2023-05-02T09:44:12.276Z,6201.4443
2023-05-02T09:45:13.481Z,5827.7729
2023-05-02T09:46:14.335Z,5699.1777
2023-05-02T09:47:15.536Z,5620.8667
2023-05-02T09:48:16.429Z,5590.5112
2023-05-02T09:49:17.314Z,5821.0225
2023-05-02T09:50:18.118Z,6266.9556
2023-05-02T09:51:18.847Z,6968.8887
2023-05-02T09:52:19.646Z,7693.0444
2023-05-02T09:53:20.155Z,8314.6885
2023-05-02T09:54:20.798Z,8541.4668
2023-05-02T09:55:21.489Z,8799.7998
2023-05-02T09:56:23.298Z,8224.3115
2023-05-02T09:57:22.866Z,7796.2559
2023-05-02T09:58:23.352Z,7565.9775
2023-05-02T09:59:24.042Z,7580.1113
2023-05-02T10:00:24.768Z,7566.5776
2023-05-02T10:01:25.459Z,8375.2002
2023-05-02T10:02:25.965Z,9018.9775
2023-05-02T10:03:26.973Z,9407.6670
2023-05-02T10:04:28.260Z,10132.4893
2023-05-02T10:05:30.176Z,10384.1338
2023-05-02T10:06:29.653Z,10381.6592
2023-05-02T10:07:30.756Z,9971.5107
2023-05-02T10:08:31.706Z,9668.8223
2023-05-02T10:09:31.768Z,9205.6426
2023-05-02T10:10:32.355Z,9263.6221
2023-05-02T10:11:33.368Z,9150.5332
2023-05-02T10:12:33.992Z,8871.6445
2023-05-02T10:13:34.760Z,8714.4219
2023-05-02T10:14:37.191Z,9007.6367
2023-05-02T10:15:37.807Z,9392.1113
2023-05-02T10:16:39.002Z,9734.8662
2023-05-02T10:17:39.847Z,9611.8447
2023-05-02T10:18:40.983Z,9138.0000
2023-05-02T10:19:41.755Z,8570.3779
2023-05-02T10:20:42.421Z,8779.6670
2023-05-02T10:21:42.948Z,9273.1338
2023-05-02T10:22:43.742Z,8932.5332
2023-05-02T10:23:44.374Z,8167.3110
2023-05-02T10:24:45.218Z,6963.9331
2023-05-02T10:25:45.895Z,5821.2891
2023-05-02T10:26:46.455Z,5151.5557
2023-05-02T10:27:47.171Z,5053.7998
2023-05-02T10:28:48.090Z,5141.6665
2023-05-02T10:29:48.794Z,5256.3779
2023-05-02T10:30:49.546Z,5433.2222
2023-05-02T10:31:50.134Z,5480.2666
2023-05-02T10:32:51.159Z,5626.4668
2023-05-02T10:33:52.168Z,5690.0225
2023-05-02T10:34:52.678Z,5736.0000
2023-05-02T10:35:53.326Z,5648.3110
2023-05-02T10:36:54.011Z,5332.4224
2023-05-02T10:39:04.223Z,4508.6001
2023-05-02T10:40:04.851Z,4286.9775
2023-05-02T10:41:05.393Z,4067.4443
2023-05-02T10:42:06.068Z,4069.9778
2023-05-02T10:43:06.707Z,4269.3779
2023-05-02T10:44:07.271Z,4495.3555
2023-05-02T10:45:07.994Z,4492.1113
2023-05-02T10:46:08.557Z,4183.5557
2023-05-02T10:47:09.011Z,3655.4651
2023-05-02T10:48:09.970Z,3206.9333
2023-05-02T10:49:10.492Z,2972.0667
2023-05-02T10:50:11.340Z,3167.0444
2023-05-02T10:52:11.720Z,4915.7554
2023-05-02T10:53:12.339Z,5446.1333
2023-05-02T10:54:12.735Z,5465.4443
2023-05-02T10:55:13.482Z,5420.6001
2023-05-02T10:56:14.205Z,5523.1558
2023-05-02T10:57:14.716Z,5966.4888
2023-05-02T10:58:15.662Z,6321.3779
2023-05-02T10:59:16.472Z,6448.9556
2023-05-02T11:00:16.934Z,6581.7778
2023-05-02T11:01:17.922Z,6831.8887
2023-05-02T11:02:18.752Z,7236.3779
2023-05-02T11:03:19.088Z,7766.9771
2023-05-02T11:04:19.846Z,8302.5107
2023-05-02T11:05:21.120Z,8545.8887
2023-05-02T11:06:21.934Z,8584.6885
2023-05-02T11:07:23.251Z,8415.1338
2023-05-02T11:08:24.325Z,8387.0664
2023-05-02T11:09:24.859Z,8290.1777
2023-05-02T11:10:25.637Z,8032.7998
2023-05-02T11:11:26.048Z,8031.4443
2023-05-02T11:12:26.749Z,8053.5112
2023-05-02T11:13:27.149Z,8184.5557
2023-05-02T11:14:27.760Z,8711.7109
2023-05-02T11:15:28.475Z,9341.7559
2023-05-02T11:16:29.153Z,9984.3555
2023-05-02T11:17:30.108Z,10060.4668
2023-05-02T11:18:31.073Z,9960.5332
2023-05-02T11:19:31.752Z,9736.3779
2023-05-02T11:20:32.519Z,9429.1777
2023-05-02T11:21:33.030Z,8941.3330
2023-05-02T11:22:33.708Z,8387.7559
2023-05-02T11:23:34.393Z,7790.9331
2023-05-02T11:24:34.957Z,7350.1777
2023-05-02T11:25:35.538Z,7008.9771
2023-05-02T11:26:36.148Z,7069.0225
2023-05-02T11:27:36.588Z,6956.3335
2023-05-02T11:28:37.398Z,6787.4443
2023-05-02T11:29:37.886Z,6126.2891
2023-05-02T11:30:38.450Z,6058.3779
2023-05-02T11:31:39.638Z,6640.3408
2023-05-02T11:32:39.660Z,8200.5459
2023-05-02T11:33:40.731Z,6761.4443
2023-05-02T11:34:41.420Z,6577.4888
2023-05-02T11:35:41.637Z,6127.3408
2023-05-02T11:36:42.320Z,7868.0889
2023-05-02T11:37:42.833Z,14434.3555
2023-05-02T11:38:43.406Z,8336.5996
2023-05-02T11:39:44.260Z,11481.2666
2023-05-02T11:40:44.769Z,8928.0664
2023-05-02T11:41:45.464Z,7249.0444
2023-05-02T11:42:46.088Z,6726.0000
2023-05-02T11:43:46.163Z,6314.2617
2023-05-02T11:44:46.813Z,6247.2446
2023-05-02T11:45:47.322Z,8931.3779
2023-05-02T11:46:48.053Z,9825.1865
2023-05-02T11:47:48.845Z,13515.7959
2023-05-02T11:48:49.622Z,19613.0215
2023-05-02T11:49:50.589Z,22049.7734
2023-05-02T11:50:52.612Z,21406.3906
2023-05-02T11:51:53.015Z,15195.6670
2023-05-02T11:52:53.658Z,11849.8223
2023-05-02T11:53:54.409Z,10149.2002
2023-05-02T11:54:54.876Z,9631.9111
2023-05-02T11:55:56.152Z,11563.4541
2023-05-02T11:56:56.600Z,10714.6885
2023-05-02T11:57:57.195Z,9989.8447
2023-05-02T11:58:57.300Z,9782.7725
2023-05-02T11:59:58.129Z,11253.7109
2023-05-02T12:00:59.116Z,11058.2227
2023-05-02T12:01:59.737Z,12606.8223
2023-05-02T12:03:00.751Z,11675.4893
2023-05-02T12:04:01.620Z,12970.4541
2023-05-02T12:05:03.217Z,13376.5781
2023-05-02T12:06:03.306Z,14170.4316
2023-05-02T12:07:04.004Z,15435.3867
2023-05-02T12:08:05.064Z,12241.6045
2023-05-02T12:09:05.496Z,10890.9551
2023-05-02T12:10:06.173Z,24694.3340
2023-05-02T12:11:06.605Z,31166.8438
2023-05-02T12:12:07.259Z,32926.9336
2023-05-02T12:13:08.906Z,41902.1328
2023-05-02T12:14:08.104Z,40289.6289
2023-05-02T12:15:09.395Z,33506.1562
2023-05-02T12:16:10.453Z,27797.5996
2023-05-02T12:17:11.253Z,26811.5996
2023-05-02T12:18:12.520Z,12067.1113
2023-05-02T12:19:12.853Z,9244.9043
2023-05-02T12:20:13.437Z,8362.9111
2023-05-02T12:21:14.137Z,7518.7998
2023-05-02T12:22:14.759Z,6589.6221
2023-05-02T12:23:15.410Z,5733.8667
2023-05-02T12:24:16.229Z,4892.3999
2023-05-02T12:25:16.775Z,4287.0889
2023-05-02T12:26:16.814Z,3998.1365
2023-05-02T12:27:16.995Z,3808.3635
2023-05-02T12:28:17.617Z,3548.5334
2023-05-02T12:29:18.430Z,3063.8889
2023-05-02T12:30:19.143Z,2814.7556
2023-05-02T12:31:20.008Z,2755.9111
2023-05-02T12:32:20.919Z,2485.7778
2023-05-02T12:33:21.740Z,2191.4888
2023-05-02T12:34:22.563Z,2085.2444
2023-05-02T12:35:23.318Z,1920.3000
2023-05-02T12:36:23.265Z,1711.5714
2023-05-02T12:37:23.969Z,1674.5778
2023-05-02T12:38:25.134Z,1564.7727
2023-05-02T12:39:25.930Z,1454.2889
2023-05-02T12:40:26.429Z,1361.9111
2023-05-02T12:41:27.132Z,1271.0889